sensor_id;sensor_type;location;lat;lon;timestamp;pressure;altitude;pressure_sealevel;temperature;humidity
46506;BME280;32220;49.808;9.968;2023-04-08T00:00:42;99163.88;;;6.68;72.53
46506;BME280;32220;49.808;9.968;2023-04-08T00:03:11;99152.75;;;6.62;72.46
46506;BME280;32220;49.808;9.968;2023-04-08T00:05:39;99160.66;;;6.62;72.61
46506;BME280;32220;49.808;9.968;2023-04-08T00:08:07;99158.25;;;6.56;72.52
46506;BME280;32220;49.808;9.968;2023-04-08T00:10:34;99163.75;;;6.51;72.53
46506;BME280;32220;49.808;9.968;2023-04-08T00:13:02;99175.28;;;6.47;72.72
46506;BME280;32220;49.808;9.968;2023-04-08T00:15:30;99155.44;;;6.40;72.79
46506;BME280;32220;49.808;9.968;2023-04-08T00:17:57;99156.72;;;6.30;72.70
46506;BME280;32220;49.808;9.968;2023-04-08T00:20:26;99184.59;;;6.34;72.64
46506;BME280;32220;49.808;9.968;2023-04-08T00:22:54;99177.78;;;6.30;72.75
46506;BME280;32220;49.808;9.968;2023-04-08T00:25:22;99184.97;;;6.25;72.79
46506;BME280;32220;49.808;9.968;2023-04-08T00:27:50;99192.19;;;6.20;72.80
46506;BME280;32220;49.808;9.968;2023-04-08T00:30:18;99187.19;;;6.13;72.91
46506;BME280;32220;49.808;9.968;2023-04-08T00:32:46;99161.66;;;5.94;72.95
46506;BME280;32220;49.808;9.968;2023-04-08T00:35:14;99185.81;;;6.03;72.98
46506;BME280;32220;49.808;9.968;2023-04-08T00:37:43;99183.38;;;5.99;72.92
46506;BME280;32220;49.808;9.968;2023-04-08T00:40:11;99186.16;;;5.94;72.95
46506;BME280;32220;49.808;9.968;2023-04-08T00:42:39;99188.97;;;5.90;73.00
46506;BME280;32220;49.808;9.968;2023-04-08T00:45:08;99183.00;;;5.85;73.06
46506;BME280;32220;49.808;9.968;2023-04-08T00:47:36;99178.81;;;5.81;72.92
46506;BME280;32220;49.808;9.968;2023-04-08T00:50:07;99170.53;;;5.68;73.17
46506;BME280;32220;49.808;9.968;2023-04-08T00:52:36;99168.22;;;5.59;73.33
46506;BME280;32220;49.808;9.968;2023-04-08T00:55:06;99184.50;;;5.68;73.02
46506;BME280;32220;49.808;9.968;2023-04-08T00:57:34;99187.31;;;5.64;72.94
46506;BME280;32220;49.808;9.968;2023-04-08T01:00:03;99183.31;;;5.54;73.14
46506;BME280;32220;49.808;9.968;2023-04-08T01:02:35;99190.28;;;5.55;73.68
46506;BME280;32220;49.808;9.968;2023-04-08T01:05:07;99196.56;;;5.51;73.53
46506;BME280;32220;49.808;9.968;2023-04-08T01:07:37;99185.28;;;5.47;73.29
46506;BME280;32220;49.808;9.968;2023-04-08T01:10:12;99183.88;;;5.38;73.37
46506;BME280;32220;49.808;9.968;2023-04-08T01:12:46;99188.25;;;5.38;73.56
46506;BME280;32220;49.808;9.968;2023-04-08T01:15:15;99184.00;;;5.34;73.59
46506;BME280;32220;49.808;9.968;2023-04-08T01:17:45;99186.69;;;5.32;73.58
46506;BME280;32220;49.808;9.968;2023-04-08T01:20:14;99190.38;;;5.28;73.76
46506;BME280;32220;49.808;9.968;2023-04-08T01:22:51;99190.47;;;5.25;73.71
46506;BME280;32220;49.808;9.968;2023-04-08T01:25:26;99195.81;;;5.22;73.48
46506;BME280;32220;49.808;9.968;2023-04-08T01:28:00;99188.97;;;5.18;73.69
46506;BME280;32220;49.808;9.968;2023-04-08T01:30:31;99190.84;;;5.15;73.52
46506;BME280;32220;49.808;9.968;2023-04-08T01:33:01;99192.66;;;5.13;73.54
46506;BME280;32220;49.808;9.968;2023-04-08T01:35:30;99194.53;;;5.09;73.61
46506;BME280;32220;49.808;9.968;2023-04-08T01:37:59;99189.41;;;5.06;73.41
46506;BME280;32220;49.808;9.968;2023-04-08T01:40:29;99167.84;;;4.96;73.78
46506;BME280;32220;49.808;9.968;2023-04-08T01:42:59;99186.03;;;5.02;74.12
46506;BME280;32220;49.808;9.968;2023-04-08T01:45:28;99179.94;;;5.02;74.44
46506;BME280;32220;49.808;9.968;2023-04-08T01:47:57;99175.59;;;5.01;74.63
46506;BME280;32220;49.808;9.968;2023-04-08T01:50:27;99179.13;;;5.00;74.93
46506;BME280;32220;49.808;9.968;2023-04-08T01:52:58;99178.16;;;5.02;74.95
46506;BME280;32220;49.808;9.968;2023-04-08T01:55:27;99169.41;;;5.02;75.67
46506;BME280;32220;49.808;9.968;2023-04-08T01:58:00;99162.50;;;4.99;76.14
46506;BME280;32220;49.808;9.968;2023-04-08T02:00:30;99170.75;;;5.14;76.33
46506;BME280;32220;49.808;9.968;2023-04-08T02:02:58;99158.88;;;5.03;76.33
46506;BME280;32220;49.808;9.968;2023-04-08T02:05:27;99175.72;;;5.21;75.93
46506;BME280;32220;49.808;9.968;2023-04-08T02:07:55;99161.13;;;5.14;75.90
46506;BME280;32220;49.808;9.968;2023-04-08T02:10:22;99169.56;;;5.22;76.02
46506;BME280;32220;49.808;9.968;2023-04-08T02:12:50;99176.44;;;5.26;75.83
46506;BME280;32220;49.808;9.968;2023-04-08T02:15:20;99173.81;;;5.26;75.43
46506;BME280;32220;49.808;9.968;2023-04-08T02:17:49;99177.28;;;5.27;75.26
46506;BME280;32220;49.808;9.968;2023-04-08T02:20:22;99179.84;;;5.28;75.25
46506;BME280;32220;49.808;9.968;2023-04-08T02:22:55;99169.56;;;5.22;74.90
46506;BME280;32220;49.808;9.968;2023-04-08T02:25:25;99184.22;;;5.29;75.15
46506;BME280;32220;49.808;9.968;2023-04-08T02:27:55;99183.34;;;5.29;75.07
46506;BME280;32220;49.808;9.968;2023-04-08T02:30:26;99187.44;;;5.36;74.71
46506;BME280;32220;49.808;9.968;2023-04-08T02:32:55;99190.84;;;5.39;74.85
46506;BME280;32220;49.808;9.968;2023-04-08T02:35:24;99179.63;;;5.34;74.34
46506;BME280;32220;49.808;9.968;2023-04-08T02:37:53;99200.19;;;5.47;74.32
46506;BME280;32220;49.808;9.968;2023-04-08T02:40:25;99201.00;;;5.49;73.98
46506;BME280;32220;49.808;9.968;2023-04-08T02:42:53;99196.66;;;5.48;73.97
46506;BME280;32220;49.808;9.968;2023-04-08T02:45:22;99205.34;;;5.50;73.57
46506;BME280;32220;49.808;9.968;2023-04-08T02:47:53;99210.50;;;5.53;73.66
46506;BME280;32220;49.808;9.968;2023-04-08T02:50:21;99205.22;;;5.53;73.58
46506;BME280;32220;49.808;9.968;2023-04-08T02:52:49;99186.50;;;5.38;73.44
46506;BME280;32220;49.808;9.968;2023-04-08T02:55:17;99211.34;;;5.53;73.01
46506;BME280;32220;49.808;9.968;2023-04-08T02:57:46;99214.84;;;5.54;72.98
46506;BME280;32220;49.808;9.968;2023-04-08T03:00:14;99219.19;;;5.55;73.15
46506;BME280;32220;49.808;9.968;2023-04-08T03:02:42;99199.38;;;5.45;72.78
46506;BME280;32220;49.808;9.968;2023-04-08T03:05:12;99226.91;;;5.58;72.84
46506;BME280;32220;49.808;9.968;2023-04-08T03:07:41;99223.44;;;5.57;72.40
46506;BME280;32220;49.808;9.968;2023-04-08T03:10:09;99223.44;;;5.57;72.51
46506;BME280;32220;49.808;9.968;2023-04-08T03:12:37;99219.94;;;5.57;72.93
46506;BME280;32220;49.808;9.968;2023-04-08T03:15:05;99227.00;;;5.56;72.95
46506;BME280;32220;49.808;9.968;2023-04-08T03:17:33;99215.75;;;5.53;72.97
46506;BME280;32220;49.808;9.968;2023-04-08T03:20:01;99219.19;;;5.55;72.76
46506;BME280;32220;49.808;9.968;2023-04-08T03:22:31;99215.69;;;5.54;72.58
46506;BME280;32220;49.808;9.968;2023-04-08T03:24:59;99204.72;;;5.43;72.40
46506;BME280;32220;49.808;9.968;2023-04-08T03:27:27;99203.72;;;5.46;72.83
46506;BME280;32220;49.808;9.968;2023-04-08T03:29:55;99212.59;;;5.43;72.81
46506;BME280;32220;49.808;9.968;2023-04-08T03:32:23;99212.75;;;5.38;72.66
46506;BME280;32220;49.808;9.968;2023-04-08T03:34:51;99224.75;;;5.46;72.40
46506;BME280;32220;49.808;9.968;2023-04-08T03:37:18;99225.66;;;5.45;72.86
46506;BME280;32220;49.808;9.968;2023-04-08T03:39:48;99223.03;;;5.45;72.98
46506;BME280;32220;49.808;9.968;2023-04-08T03:42:15;99223.03;;;5.45;73.20
46506;BME280;32220;49.808;9.968;2023-04-08T03:44:43;99226.47;;;5.47;72.94
46506;BME280;32220;49.808;9.968;2023-04-08T03:47:10;99229.88;;;5.49;72.82
46506;BME280;32220;49.808;9.968;2023-04-08T03:49:38;99228.06;;;5.51;73.03
46506;BME280;32220;49.808;9.968;2023-04-08T03:52:06;99213.50;;;5.42;72.71
46506;BME280;32220;49.808;9.968;2023-04-08T03:54:34;99234.94;;;5.55;72.73
46506;BME280;32220;49.808;9.968;2023-04-08T03:57:04;99223.63;;;5.53;72.86
46506;BME280;32220;49.808;9.968;2023-04-08T03:59:31;99216.59;;;5.53;72.99
46506;BME280;32220;49.808;9.968;2023-04-08T04:02:01;99233.84;;;5.60;72.72
46506;BME280;32220;49.808;9.968;2023-04-08T04:04:29;99236.41;;;5.62;72.83
46506;BME280;32220;49.808;9.968;2023-04-08T04:06:57;99236.41;;;5.62;72.95
46506;BME280;32220;49.808;9.968;2023-04-08T04:09:25;99235.66;;;5.58;72.72
46506;BME280;32220;49.808;9.968;2023-04-08T04:11:52;99239.38;;;5.53;72.52
46506;BME280;32220;49.808;9.968;2023-04-08T04:14:21;99247.47;;;5.47;72.79
46506;BME280;32220;49.808;9.968;2023-04-08T04:16:49;99239.88;;;5.39;72.87
46506;BME280;32220;49.808;9.968;2023-04-08T04:19:17;99244.38;;;5.35;73.07
46506;BME280;32220;49.808;9.968;2023-04-08T04:21:45;99235.91;;;5.27;72.80
46506;BME280;32220;49.808;9.968;2023-04-08T04:24:13;99240.22;;;5.30;73.00
46506;BME280;32220;49.808;9.968;2023-04-08T04:26:41;99241.16;;;5.27;72.76
46506;BME280;32220;49.808;9.968;2023-04-08T04:29:08;99246.31;;;5.30;73.22
46506;BME280;32220;49.808;9.968;2023-04-08T04:31:38;99233.25;;;5.29;73.47
46506;BME280;32220;49.808;9.968;2023-04-08T04:34:05;99253.06;;;5.37;73.19
46506;BME280;32220;49.808;9.968;2023-04-08T04:36:33;99239.06;;;5.37;73.35
46506;BME280;32220;49.808;9.968;2023-04-08T04:39:01;99205.59;;;5.19;73.29
46506;BME280;32220;49.808;9.968;2023-04-08T04:41:29;99250.03;;;5.48;72.97
46506;BME280;32220;49.808;9.968;2023-04-08T04:43:57;99257.53;;;5.59;73.14
46506;BME280;32220;49.808;9.968;2023-04-08T04:46:24;99257.38;;;5.63;72.67
46506;BME280;32220;49.808;9.968;2023-04-08T04:48:54;99248.34;;;5.70;73.09
46506;BME280;32220;49.808;9.968;2023-04-08T04:51:21;99231.97;;;5.64;73.68
46506;BME280;32220;49.808;9.968;2023-04-08T04:53:49;99243.69;;;5.78;73.82
46506;BME280;32220;49.808;9.968;2023-04-08T04:56:17;99238.53;;;5.75;73.96
46506;BME280;32220;49.808;9.968;2023-04-08T04:58:46;99240.03;;;5.83;74.09
46506;BME280;32220;49.808;9.968;2023-04-08T05:01:14;99255.19;;;5.99;73.89
46506;BME280;32220;49.808;9.968;2023-04-08T05:03:41;99261.06;;;6.06;73.87
46506;BME280;32220;49.808;9.968;2023-04-08T05:06:10;99267.78;;;6.15;73.45
46506;BME280;32220;49.808;9.968;2023-04-08T05:08:38;99257.00;;;6.21;73.55
46506;BME280;32220;49.808;9.968;2023-04-08T05:11:08;99232.72;;;6.14;73.52
46506;BME280;32220;49.808;9.968;2023-04-08T05:13:36;99266.88;;;6.37;73.26
46506;BME280;32220;49.808;9.968;2023-04-08T05:16:04;99259.84;;;6.38;72.93
46506;BME280;32220;49.808;9.968;2023-04-08T05:18:31;99271.34;;;6.57;73.01
46506;BME280;32220;49.808;9.968;2023-04-08T05:20:59;99219.72;;;6.33;72.49
46506;BME280;32220;49.808;9.968;2023-04-08T05:23:29;99270.63;;;6.75;72.64
46506;BME280;32220;49.808;9.968;2023-04-08T05:25:57;99281.63;;;6.85;72.50
46506;BME280;32220;49.808;9.968;2023-04-08T05:28:24;99282.13;;;6.95;72.57
46506;BME280;32220;49.808;9.968;2023-04-08T05:30:52;99275.69;;;7.02;72.41
46506;BME280;32220;49.808;9.968;2023-04-08T05:33:20;99290.88;;;7.17;72.08
46506;BME280;32220;49.808;9.968;2023-04-08T05:35:48;99277.19;;;7.29;71.96
46506;BME280;32220;49.808;9.968;2023-04-08T05:38:16;99268.19;;;7.33;72.17
46506;BME280;32220;49.808;9.968;2023-04-08T05:40:45;99282.31;;;7.52;71.94
46506;BME280;32220;49.808;9.968;2023-04-08T05:43:13;99292.09;;;7.69;71.55
46506;BME280;32220;49.808;9.968;2023-04-08T05:45:41;99296.84;;;7.81;71.64
46506;BME280;32220;49.808;9.968;2023-04-08T05:48:09;99295.03;;;8.02;71.82
46506;BME280;32220;49.808;9.968;2023-04-08T05:50:37;99289.91;;;8.18;71.32
46506;BME280;32220;49.808;9.968;2023-04-08T05:53:05;99299.66;;;8.36;71.51
46506;BME280;32220;49.808;9.968;2023-04-08T05:55:33;99297.25;;;8.50;71.18
46506;BME280;32220;49.808;9.968;2023-04-08T05:58:02;99305.44;;;8.63;70.84
46506;BME280;32220;49.808;9.968;2023-04-08T06:00:31;99309.41;;;8.72;70.88
46506;BME280;32220;49.808;9.968;2023-04-08T06:02:58;99306.25;;;8.82;70.35
46506;BME280;32220;49.808;9.968;2023-04-08T06:05:26;99312.88;;;8.91;70.62
46506;BME280;32220;49.808;9.968;2023-04-08T06:07:54;99314.28;;;8.98;70.00
46506;BME280;32220;49.808;9.968;2023-04-08T06:10:21;99292.44;;;8.94;69.80
46506;BME280;32220;49.808;9.968;2023-04-08T06:12:49;99320.56;;;9.14;69.52
46506;BME280;32220;49.808;9.968;2023-04-08T06:15:18;99321.09;;;9.21;69.37
46506;BME280;32220;49.808;9.968;2023-04-08T06:17:46;99326.09;;;9.27;69.27
46506;BME280;32220;49.808;9.968;2023-04-08T06:20:14;99329.19;;;9.35;69.24
46506;BME280;32220;49.808;9.968;2023-04-08T06:22:42;99334.16;;;9.41;69.10
46506;BME280;32220;49.808;9.968;2023-04-08T06:25:09;99325.06;;;9.47;68.78
46506;BME280;32220;49.808;9.968;2023-04-08T06:27:37;99331.81;;;9.52;68.68
46506;BME280;32220;49.808;9.968;2023-04-08T06:30:06;99334.19;;;9.58;68.09
46506;BME280;32220;49.808;9.968;2023-04-08T06:32:36;99341.97;;;9.61;67.71
46506;BME280;32220;49.808;9.968;2023-04-08T06:35:05;99347.19;;;9.63;66.35
46506;BME280;32220;49.808;9.968;2023-04-08T06:37:33;99356.81;;;9.64;65.01
46506;BME280;32220;49.808;9.968;2023-04-08T06:40:04;99362.94;;;9.64;63.71
46506;BME280;32220;49.808;9.968;2023-04-08T06:42:32;99384.28;;;9.61;62.45
46506;BME280;32220;49.808;9.968;2023-04-08T06:45:24;99378.19;;;9.59;61.70
46506;BME280;32220;49.808;9.968;2023-04-08T06:47:54;99389.56;;;9.61;60.72
46506;BME280;32220;49.808;9.968;2023-04-08T06:50:22;99396.56;;;9.62;60.80
46506;BME280;32220;49.808;9.968;2023-04-08T06:52:49;99389.38;;;9.64;60.15
46506;BME280;32220;49.808;9.968;2023-04-08T06:55:17;99387.22;;;9.72;60.75
46506;BME280;32220;49.808;9.968;2023-04-08T06:57:45;99388.47;;;9.83;61.21
46506;BME280;32220;49.808;9.968;2023-04-08T07:00:14;99396.19;;;9.87;61.04
46506;BME280;32220;49.808;9.968;2023-04-08T07:02:42;99377.34;;;9.76;59.54
46506;BME280;32220;49.808;9.968;2023-04-08T07:05:11;99402.00;;;9.94;59.79
46506;BME280;32220;49.808;9.968;2023-04-08T07:07:39;99398.56;;;10.09;59.87
46506;BME280;32220;49.808;9.968;2023-04-08T07:10:07;99397.88;;;10.23;60.33
46506;BME280;32220;49.808;9.968;2023-04-08T07:12:35;99406.91;;;10.36;59.36
46506;BME280;32220;49.808;9.968;2023-04-08T07:15:03;99408.63;;;10.53;59.07
46506;BME280;32220;49.808;9.968;2023-04-08T07:17:32;99411.47;;;10.65;58.70
46506;BME280;32220;49.808;9.968;2023-04-08T07:19:59;99415.88;;;10.82;57.94
46506;BME280;32220;49.808;9.968;2023-04-08T07:22:29;99417.09;;;11.08;57.48
46506;BME280;32220;49.808;9.968;2023-04-08T07:24:56;99430.34;;;11.24;57.27
46506;BME280;32220;49.808;9.968;2023-04-08T07:27:24;99434.97;;;11.20;54.56
46506;BME280;32220;49.808;9.968;2023-04-08T07:29:52;99422.63;;;11.03;54.72
46506;BME280;32220;49.808;9.968;2023-04-08T07:32:20;99424.50;;;11.01;54.95
46506;BME280;32220;49.808;9.968;2023-04-08T07:34:48;99440.09;;;11.07;54.67
46506;BME280;32220;49.808;9.968;2023-04-08T07:37:17;99449.75;;;11.08;54.42
46506;BME280;32220;49.808;9.968;2023-04-08T07:39:46;99451.19;;;10.98;54.04
46506;BME280;32220;49.808;9.968;2023-04-08T07:42:14;99455.09;;;10.91;53.67
46506;BME280;32220;49.808;9.968;2023-04-08T07:44:42;99452.34;;;10.77;53.87
46506;BME280;32220;49.808;9.968;2023-04-08T07:47:09;99462.09;;;10.76;54.31
46506;BME280;32220;49.808;9.968;2023-04-08T07:49:37;99474.53;;;10.59;53.19
46506;BME280;32220;49.808;9.968;2023-04-08T07:52:05;99476.03;;;10.47;53.85
46506;BME280;32220;49.808;9.968;2023-04-08T07:54:33;99463.50;;;10.33;54.19
46506;BME280;32220;49.808;9.968;2023-04-08T07:57:03;99450.13;;;10.19;54.51
46506;BME280;32220;49.808;9.968;2023-04-08T07:59:31;99462.78;;;10.30;54.86
46506;BME280;32220;49.808;9.968;2023-04-08T08:01:59;99458.28;;;10.32;55.16
46506;BME280;32220;49.808;9.968;2023-04-08T08:04:26;99454.25;;;10.25;55.42
46506;BME280;32220;49.808;9.968;2023-04-08T08:06:54;99455.63;;;10.32;55.62
46506;BME280;32220;49.808;9.968;2023-04-08T08:09:22;99461.50;;;10.38;55.68
46506;BME280;32220;49.808;9.968;2023-04-08T08:11:50;99455.84;;;10.44;56.10
46506;BME280;32220;49.808;9.968;2023-04-08T08:14:19;99453.50;;;10.56;56.09
46506;BME280;32220;49.808;9.968;2023-04-08T08:16:47;99460.94;;;10.65;56.14
46506;BME280;32220;49.808;9.968;2023-04-08T08:19:15;99461.06;;;10.79;55.92
46506;BME280;32220;49.808;9.968;2023-04-08T08:21:43;99476.47;;;10.88;54.85
46506;BME280;32220;49.808;9.968;2023-04-08T08:24:11;99473.25;;;10.99;55.15
46506;BME280;32220;49.808;9.968;2023-04-08T08:26:38;99475.47;;;11.06;54.97
46506;BME280;32220;49.808;9.968;2023-04-08T08:29:07;99475.16;;;11.12;54.84
46506;BME280;32220;49.808;9.968;2023-04-08T08:31:36;99475.59;;;11.21;55.51
46506;BME280;32220;49.808;9.968;2023-04-08T08:34:03;99474.13;;;11.31;55.31
46506;BME280;32220;49.808;9.968;2023-04-08T08:36:31;99478.50;;;11.32;54.69
46506;BME280;32220;49.808;9.968;2023-04-08T08:38:59;99489.72;;;11.37;54.49
46506;BME280;32220;49.808;9.968;2023-04-08T08:41:32;99481.16;;;11.32;54.62
46506;BME280;32220;49.808;9.968;2023-04-08T08:44:01;99487.56;;;11.28;54.23
46506;BME280;32220;49.808;9.968;2023-04-08T08:46:29;99495.19;;;11.34;54.45
46506;BME280;32220;49.808;9.968;2023-04-08T08:48:59;99505.44;;;11.40;54.62
46506;BME280;32220;49.808;9.968;2023-04-08T08:51:27;99501.75;;;11.27;53.86
46506;BME280;32220;49.808;9.968;2023-04-08T08:54:01;99509.03;;;11.39;54.10
46506;BME280;32220;49.808;9.968;2023-04-08T08:56:29;99513.59;;;11.37;53.48
46506;BME280;32220;49.808;9.968;2023-04-08T08:58:57;99489.63;;;11.23;53.71
46506;BME280;32220;49.808;9.968;2023-04-08T09:01:32;99507.84;;;11.60;54.20
46506;BME280;32220;49.808;9.968;2023-04-08T09:04:09;99508.44;;;11.97;53.91
46506;BME280;32220;49.808;9.968;2023-04-08T09:06:38;99512.97;;;12.24;53.59
46506;BME280;32220;49.808;9.968;2023-04-08T09:09:05;99524.38;;;12.71;52.59
46506;BME280;32220;49.808;9.968;2023-04-08T09:11:36;99521.59;;;13.16;51.93
46506;BME280;32220;49.808;9.968;2023-04-08T09:14:05;99529.72;;;13.42;50.43
46506;BME280;32220;49.808;9.968;2023-04-08T09:16:33;99533.94;;;13.99;50.08
46506;BME280;32220;49.808;9.968;2023-04-08T09:19:09;99529.69;;;14.76;49.28
46506;BME280;32220;49.808;9.968;2023-04-08T09:21:40;99540.31;;;15.65;47.32
46506;BME280;32220;49.808;9.968;2023-04-08T09:24:08;99554.66;;;16.11;45.17
46506;BME280;32220;49.808;9.968;2023-04-08T09:26:36;99558.34;;;16.22;44.72
46506;BME280;32220;49.808;9.968;2023-04-08T09:29:05;99569.34;;;16.30;44.21
46506;BME280;32220;49.808;9.968;2023-04-08T09:31:35;99577.25;;;16.31;43.18
46506;BME280;32220;49.808;9.968;2023-04-08T09:34:11;99569.41;;;16.17;44.26
46506;BME280;32220;49.808;9.968;2023-04-08T09:36:40;99568.06;;;16.23;44.09
46506;BME280;32220;49.808;9.968;2023-04-08T09:39:08;99569.63;;;16.38;43.61
46506;BME280;32220;49.808;9.968;2023-04-08T09:41:37;99565.53;;;16.21;44.60
46506;BME280;32220;49.808;9.968;2023-04-08T09:44:06;99565.22;;;16.37;44.56
46506;BME280;32220;49.808;9.968;2023-04-08T09:46:39;99577.31;;;16.19;43.09
46506;BME280;32220;49.808;9.968;2023-04-08T09:49:11;99568.25;;;15.72;44.15
46506;BME280;32220;49.808;9.968;2023-04-08T09:51:44;99544.81;;;15.88;44.65
46506;BME280;32220;49.808;9.968;2023-04-08T09:54:16;99576.03;;;15.88;43.68
46506;BME280;32220;49.808;9.968;2023-04-08T09:56:50;99564.75;;;15.71;44.68
46506;BME280;32220;49.808;9.968;2023-04-08T09:59:20;99540.13;;;15.55;44.63
46506;BME280;32220;49.808;9.968;2023-04-08T10:01:51;99555.28;;;15.91;45.36
46506;BME280;32220;49.808;9.968;2023-04-08T10:04:24;99563.09;;;16.42;44.50
46506;BME280;32220;49.808;9.968;2023-04-08T10:06:56;99566.00;;;17.53;42.42
46506;BME280;32220;49.808;9.968;2023-04-08T10:09:25;99580.47;;;17.51;41.77
46506;BME280;32220;49.808;9.968;2023-04-08T10:11:54;99584.69;;;17.20;42.16
46506;BME280;32220;49.808;9.968;2023-04-08T10:14:22;99579.78;;;16.80;42.12
46506;BME280;32220;49.808;9.968;2023-04-08T10:17:23;99575.00;;;16.73;42.83
46506;BME280;32220;49.808;9.968;2023-04-08T10:19:54;99562.53;;;16.96;44.12
46506;BME280;32220;49.808;9.968;2023-04-08T10:22:45;99572.13;;;16.87;43.04
46506;BME280;32220;49.808;9.968;2023-04-08T10:25:28;99559.13;;;16.59;43.21
46506;BME280;32220;49.808;9.968;2023-04-08T10:27:57;99549.84;;;16.16;43.33
46506;BME280;32220;49.808;9.968;2023-04-08T10:30:41;99529.31;;;15.93;45.40
46506;BME280;32220;49.808;9.968;2023-04-08T10:33:10;99529.91;;;15.73;45.20
46506;BME280;32220;49.808;9.968;2023-04-08T10:35:43;99524.59;;;15.48;45.30
46506;BME280;32220;49.808;9.968;2023-04-08T10:38:14;99528.25;;;15.34;46.28
46506;BME280;32220;49.808;9.968;2023-04-08T10:40:43;99532.81;;;15.08;45.96
46506;BME280;32220;49.808;9.968;2023-04-08T10:43:12;99537.16;;;14.84;46.57
46506;BME280;32220;49.808;9.968;2023-04-08T10:45:42;99523.72;;;14.85;47.32
46506;BME280;32220;49.808;9.968;2023-04-08T10:48:16;99526.28;;;15.12;47.38
46506;BME280;32220;49.808;9.968;2023-04-08T10:50:51;99524.72;;;15.46;47.19
46506;BME280;32220;49.808;9.968;2023-04-08T10:53:24;99521.84;;;15.62;46.46
46506;BME280;32220;49.808;9.968;2023-04-08T10:55:52;99539.59;;;15.87;46.77
46506;BME280;32220;49.808;9.968;2023-04-08T10:58:20;99544.28;;;15.83;45.03
46506;BME280;32220;49.808;9.968;2023-04-08T11:00:48;99542.19;;;15.75;45.32
46506;BME280;32220;49.808;9.968;2023-04-08T11:03:15;99545.50;;;15.79;45.67
46506;BME280;32220;49.808;9.968;2023-04-08T11:05:43;99533.13;;;15.78;46.25
46506;BME280;32220;49.808;9.968;2023-04-08T11:08:13;99533.00;;;15.79;45.99
46506;BME280;32220;49.808;9.968;2023-04-08T11:10:41;99546.63;;;15.88;45.98
46506;BME280;32220;49.808;9.968;2023-04-08T11:13:10;99527.97;;;15.75;45.56
46506;BME280;32220;49.808;9.968;2023-04-08T11:15:38;99545.56;;;15.90;45.48
46506;BME280;32220;49.808;9.968;2023-04-08T11:18:07;99542.50;;;16.07;46.22
46506;BME280;32220;49.808;9.968;2023-04-08T11:20:35;99547.81;;;16.07;44.58
46506;BME280;32220;49.808;9.968;2023-04-08T11:23:03;99540.41;;;16.00;44.59
46506;BME280;32220;49.808;9.968;2023-04-08T11:25:32;99551.72;;;16.03;44.56
46506;BME280;32220;49.808;9.968;2023-04-08T11:28:01;99544.03;;;15.99;45.37
46506;BME280;32220;49.808;9.968;2023-04-08T11:30:29;99534.78;;;16.15;45.73
46506;BME280;32220;49.808;9.968;2023-04-08T11:32:57;99527.06;;;16.35;45.77
46506;BME280;32220;49.808;9.968;2023-04-08T11:35:27;99541.78;;;16.64;45.12
46506;BME280;32220;49.808;9.968;2023-04-08T11:37:56;99516.03;;;16.74;45.10
46506;BME280;32220;49.808;9.968;2023-04-08T11:40:24;99530.31;;;17.08;44.84
46506;BME280;32220;49.808;9.968;2023-04-08T11:42:54;99523.63;;;17.14;43.63
46506;BME280;32220;49.808;9.968;2023-04-08T11:45:22;99544.69;;;17.30;43.19
46506;BME280;32220;49.808;9.968;2023-04-08T11:47:50;99541.91;;;17.42;43.67
46506;BME280;32220;49.808;9.968;2023-04-08T11:50:22;99537.25;;;17.44;43.49
46506;BME280;32220;49.808;9.968;2023-04-08T11:52:51;99549.94;;;17.42;42.71
46506;BME280;32220;49.808;9.968;2023-04-08T11:55:22;99530.69;;;17.48;43.63
46506;BME280;32220;49.808;9.968;2023-04-08T11:57:51;99529.47;;;17.64;43.54
46506;BME280;32220;49.808;9.968;2023-04-08T12:00:21;99546.63;;;17.72;42.71
46506;BME280;32220;49.808;9.968;2023-04-08T12:02:50;99539.94;;;17.78;43.01
46506;BME280;32220;49.808;9.968;2023-04-08T12:05:19;99539.13;;;18.09;43.25
46506;BME280;32220;49.808;9.968;2023-04-08T12:07:47;99536.06;;;18.46;42.75
46506;BME280;32220;49.808;9.968;2023-04-08T12:10:15;99539.03;;;18.84;41.82
46506;BME280;32220;49.808;9.968;2023-04-08T12:12:43;99545.59;;;18.91;41.10
46506;BME280;32220;49.808;9.968;2023-04-08T12:15:11;99546.84;;;18.87;40.83
46506;BME280;32220;49.808;9.968;2023-04-08T12:17:40;99552.72;;;18.81;40.62
46506;BME280;32220;49.808;9.968;2023-04-08T12:20:09;99508.56;;;18.33;40.94
46506;BME280;32220;49.808;9.968;2023-04-08T12:22:38;99551.47;;;18.33;41.84
46506;BME280;32220;49.808;9.968;2023-04-08T12:25:06;99544.56;;;18.19;42.40
46506;BME280;32220;49.808;9.968;2023-04-08T12:27:34;99559.09;;;18.05;42.25
46506;BME280;32220;49.808;9.968;2023-04-08T12:30:03;99553.78;;;17.83;42.81
46506;BME280;32220;49.808;9.968;2023-04-08T12:32:30;99539.44;;;17.62;43.36
46506;BME280;32220;49.808;9.968;2023-04-08T12:35:00;99524.13;;;17.41;43.76
46506;BME280;32220;49.808;9.968;2023-04-08T12:37:29;99531.03;;;17.21;43.53
46506;BME280;32220;49.808;9.968;2023-04-08T12:39:58;99534.09;;;17.06;43.98
46506;BME280;32220;49.808;9.968;2023-04-08T12:42:26;99543.94;;;17.05;44.29
46506;BME280;32220;49.808;9.968;2023-04-08T12:44:54;99524.84;;;17.10;43.80
46506;BME280;32220;49.808;9.968;2023-04-08T12:47:23;99524.59;;;17.13;44.00
46506;BME280;32220;49.808;9.968;2023-04-08T12:49:50;99541.41;;;17.15;43.92
46506;BME280;32220;49.808;9.968;2023-04-08T12:52:20;99532.41;;;17.16;44.61
46506;BME280;32220;49.808;9.968;2023-04-08T12:54:49;99537.00;;;17.14;44.68
46506;BME280;32220;49.808;9.968;2023-04-08T12:57:17;99535.53;;;16.99;44.92
46506;BME280;32220;49.808;9.968;2023-04-08T12:59:44;99529.91;;;16.79;45.17
46506;BME280;32220;49.808;9.968;2023-04-08T13:02:13;99536.25;;;16.55;45.11
46506;BME280;32220;49.808;9.968;2023-04-08T13:04:40;99533.38;;;16.34;45.53
46506;BME280;32220;49.808;9.968;2023-04-08T13:07:08;99532.59;;;16.21;46.33
46506;BME280;32220;49.808;9.968;2023-04-08T13:09:38;99525.78;;;16.16;46.83
46506;BME280;32220;49.808;9.968;2023-04-08T13:12:05;99525.31;;;16.23;46.19
46506;BME280;32220;49.808;9.968;2023-04-08T13:14:33;99524.16;;;16.38;46.99